Time;durP1;ratioP1;P1;durP2;ratioP2;P2;SDS_P1;SDS_P2;PMS_P1;PMS_P2;Temp;Humidity;BMP_temperature;BMP_pressure;BME280_temperature;BME280_humidity;BME280_pressure;Samples;Min_cycle;Max_cycle;Signal;HPM_P1;HPM_P2
2021/04/05 00:01:39;;;;;;;10.20;7.10;;;5.40;78.40;;;;;;5098678;28;20436;-43
2021/04/05 00:04:05;;;;;;;12.00;7.00;;;5.30;78.00;;;;;;5080543;28;20263;-43
2021/04/05 00:06:31;;;;;;;9.83;6.20;;;5.30;78.10;;;;;;5097923;28;20184;-43
2021/04/05 00:08:57;;;;;;;15.90;6.83;;;5.30;78.10;;;;;;5079647;28;20430;-42
2021/04/05 00:11:23;;;;;;;11.27;7.27;;;5.30;78.20;;;;;;5096990;28;20414;-44
2021/04/05 00:13:49;;;;;;;13.03;6.63;;;5.30;78.40;;;;;;5095894;28;20345;-43
2021/04/05 00:16:20;;;;;;;11.40;7.70;;;5.30;78.70;;;;;;5095549;28;20534;-42
2021/04/05 00:18:47;;;;;;;12.23;6.90;;;5.30;78.50;;;;;;5095548;28;20531;-43
2021/04/05 00:21:22;;;;;;;8.53;7.00;;;5.30;78.60;;;;;;5095564;28;20457;-43
2021/04/05 00:23:54;;;;;;;12.30;6.57;;;5.20;78.40;;;;;;5095759;28;20410;-41
2021/04/05 00:26:20;;;;;;;10.13;7.40;;;5.30;78.60;;;;;;5078186;28;20414;-42
2021/04/05 00:28:47;;;;;;;10.53;7.70;;;5.20;78.40;;;;;;5079591;28;20422;-43
2021/04/05 00:31:13;;;;;;;10.10;7.50;;;5.30;78.70;;;;;;5098028;28;20537;-44
2021/04/05 00:33:39;;;;;;;12.50;7.63;;;5.30;78.20;;;;;;5098508;28;20435;-41
2021/04/05 00:36:05;;;;;;;13.53;7.20;;;5.30;78.30;;;;;;5098420;28;20176;-41
2021/04/05 00:38:31;;;;;;;13.03;6.97;;;5.20;78.40;;;;;;5102346;28;20498;-41
2021/04/05 00:40:59;;;;;;;10.93;7.10;;;5.20;79.80;;;;;;5102355;28;20700;-42
2021/04/05 00:43:26;;;;;;;12.50;7.03;;;5.10;79.10;;;;;;5101406;28;20597;-42
2021/04/05 00:45:52;;;;;;;11.40;7.73;;;5.10;80.30;;;;;;5101594;28;20407;-42
2021/04/05 00:48:17;;;;;;;9.27;8.07;;;5.00;80.00;;;;;;5102376;28;20442;-42
2021/04/05 00:50:57;;;;;;;14.90;8.53;;;4.90;80.50;;;;;;5101876;28;20423;-42
2021/04/05 00:53:26;;;;;;;9.30;7.83;;;4.90;80.80;;;;;;5102170;28;20754;-42
2021/04/05 00:55:51;;;;;;;12.03;7.47;;;4.80;81.30;;;;;;5102033;28;20451;-42
2021/04/05 00:58:17;;;;;;;8.83;7.87;;;4.80;81.60;;;;;;5101607;28;20574;-40
2021/04/05 01:00:52;;;;;;;12.37;8.60;;;4.80;81.60;;;;;;5102066;28;20263;-41
2021/04/05 01:03:21;;;;;;;14.57;8.80;;;4.80;81.80;;;;;;5102188;28;20436;-42
2021/04/05 01:05:52;;;;;;;8.10;7.30;;;4.70;81.90;;;;;;5101222;28;20513;-44
2021/04/05 01:08:18;;;;;;;9.67;7.90;;;4.70;82.20;;;;;;5101676;28;20513;-42
2021/04/05 01:10:45;;;;;;;10.87;7.43;;;4.70;82.40;;;;;;5101855;28;20482;-42
2021/04/05 01:13:10;;;;;;;10.47;7.70;;;4.60;82.40;;;;;;5100826;28;20424;-42
2021/04/05 01:15:36;;;;;;;10.40;5.90;;;4.60;82.80;;;;;;5083551;28;20537;-40
2021/04/05 01:18:07;;;;;;;8.30;5.00;;;4.60;86.10;;;;;;5100415;28;20218;-42
2021/04/05 01:20:33;;;;;;;7.70;6.33;;;5.20;94.60;;;;;;5100787;28;20414;-39
2021/04/05 01:23:00;;;;;;;8.87;7.90;;;5.60;95.40;;;;;;5100826;28;20495;-43
2021/04/05 01:25:27;;;;;;;11.30;7.13;;;6.00;93.10;;;;;;5083711;28;20426;-41
2021/04/05 01:27:53;;;;;;;8.57;7.40;;;6.00;84.90;;;;;;5101275;28;20441;-41
2021/04/05 01:30:37;;;;;;;8.93;7.20;;;5.90;81.80;;;;;;5100884;28;20483;-42
2021/04/05 01:33:34;;;;;;;11.33;7.50;;;5.70;80.40;;;;;;5100997;28;20431;-40
2021/04/05 01:36:10;;;;;;;12.73;8.17;;;5.60;80.10;;;;;;5097359;28;20487;-41
2021/04/05 01:38:42;;;;;;;10.87;7.70;;;5.30;80.10;;;;;;5100833;28;20534;-39
2021/04/05 01:41:11;;;;;;;10.40;7.00;;;5.20;80.90;;;;;;5101073;28;20430;-42
2021/04/05 01:43:37;;;;;;;12.17;9.03;;;5.10;81.30;;;;;;5101136;28;20408;-42
2021/04/05 01:46:03;;;;;;;9.20;6.80;;;4.90;81.60;;;;;;5100898;28;20735;-39
2021/04/05 01:48:30;;;;;;;14.90;7.60;;;4.80;81.90;;;;;;5099058;28;20476;-40
2021/04/05 01:51:05;;;;;;;9.13;8.03;;;4.70;82.60;;;;;;5100537;28;20554;-42
2021/04/05 01:53:31;;;;;;;9.53;7.77;;;4.70;82.90;;;;;;5100700;28;20429;-42
2021/04/05 01:55:58;;;;;;;9.10;7.00;;;4.60;83.20;;;;;;5100894;28;20518;-41
2021/04/05 01:58:25;;;;;;;9.00;7.37;;;4.50;83.70;;;;;;5100427;28;20481;-42
2021/04/05 02:00:51;;;;;;;13.17;7.47;;;4.50;84.00;;;;;;5100233;28;20845;-42
2021/04/05 02:03:16;;;;;;;9.33;7.37;;;4.40;84.20;;;;;;5099841;28;20426;-39
2021/04/05 02:05:55;;;;;;;14.13;7.83;;;4.40;84.40;;;;;;5082539;28;20183;-42
2021/04/05 02:08:24;;;;;;;9.37;7.53;;;4.40;84.80;;;;;;5101205;28;20193;-42
2021/04/05 02:10:52;;;;;;;11.30;6.80;;;4.30;84.50;;;;;;5101027;28;20487;-42
2021/04/05 02:13:22;;;;;;;9.47;7.10;;;4.30;84.20;;;;;;5100686;28;20457;-41
2021/04/05 02:15:49;;;;;;;10.87;6.60;;;4.30;84.10;;;;;;5100207;28;20419;-42
2021/04/05 02:18:15;;;;;;;9.57;6.60;;;4.30;84.00;;;;;;5100426;28;20929;-42
2021/04/05 02:20:42;;;;;;;12.30;6.93;;;4.20;84.00;;;;;;5100587;28;20407;-42
2021/04/05 02:23:08;;;;;;;7.80;6.63;;;4.20;84.20;;;;;;5100385;28;20484;-42
2021/04/05 02:25:34;;;;;;;8.80;6.70;;;4.20;84.20;;;;;;5100526;28;20402;-41
2021/04/05 02:28:02;;;;;;;11.70;7.90;;;4.30;84.30;;;;;;5100511;28;20180;-43
2021/04/05 02:30:30;;;;;;;9.83;7.30;;;4.30;84.30;;;;;;5100806;28;20422;-42
2021/04/05 02:32:58;;;;;;;12.60;7.47;;;4.30;84.40;;;;;;5099866;28;20434;-42
2021/04/05 02:35:26;;;;;;;12.47;6.57;;;4.30;84.50;;;;;;5100003;28;20479;-42
2021/04/05 02:37:53;;;;;;;9.17;6.60;;;4.30;84.50;;;;;;5099920;28;20426;-42
2021/04/05 02:40:20;;;;;;;10.43;7.00;;;4.40;84.50;;;;;;5100187;28;20459;-42
2021/04/05 02:42:47;;;;;;;13.70;7.33;;;4.30;84.60;;;;;;5081474;28;20426;-42
2021/04/05 02:45:18;;;;;;;10.10;7.33;;;4.30;84.60;;;;;;5099950;28;20688;-42
2021/04/05 02:47:45;;;;;;;7.40;6.30;;;4.30;85.00;;;;;;5099939;28;20442;-42
2021/04/05 02:50:11;;;;;;;7.60;6.50;;;4.30;85.30;;;;;;5081978;28;20480;-41
2021/04/05 02:52:37;;;;;;;9.97;6.87;;;4.30;85.50;;;;;;5082007;28;20525;-42
2021/04/05 02:55:05;;;;;;;8.93;6.50;;;4.30;85.70;;;;;;5099442;28;20717;-42
2021/04/05 02:57:35;;;;;;;11.87;6.30;;;4.30;85.70;;;;;;5099356;28;20773;-41
2021/04/05 03:00:05;;;;;;;10.73;7.30;;;4.30;85.60;;;;;;5081553;28;20450;-42
2021/04/05 03:02:31;;;;;;;9.23;6.57;;;4.30;85.80;;;;;;5099376;28;20462;-42
2021/04/05 03:04:58;;;;;;;10.60;7.60;;;4.30;85.90;;;;;;5099095;28;20850;-42
2021/04/05 03:07:24;;;;;;;10.53;6.70;;;4.20;86.00;;;;;;5081053;28;20894;-42
2021/04/05 03:09:50;;;;;;;8.20;5.93;;;4.20;86.20;;;;;;5098970;28;20422;-40
2021/04/05 03:12:15;;;;;;;13.33;6.93;;;4.20;86.40;;;;;;5099320;28;20184;-40
2021/04/05 03:14:41;;;;;;;11.63;6.70;;;4.10;86.50;;;;;;5098929;28;20223;-42
2021/04/05 03:17:08;;;;;;;12.40;7.37;;;4.10;86.60;;;;;;5081000;28;20508;-42
2021/04/05 03:19:38;;;;;;;11.73;7.40;;;4.10;87.00;;;;;;5080632;28;20204;-42
2021/04/05 03:22:04;;;;;;;11.17;6.77;;;4.10;87.20;;;;;;5080578;28;20434;-41
2021/04/05 03:24:30;;;;;;;11.70;7.63;;;4.00;87.30;;;;;;5080663;28;20418;-42
2021/04/05 03:26:56;;;;;;;15.07;7.30;;;4.00;87.40;;;;;;5080980;28;20431;-42
2021/04/05 03:29:24;;;;;;;10.97;6.40;;;3.90;87.60;;;;;;5098352;28;20176;-42
2021/04/05 03:31:51;;;;;;;10.87;7.30;;;3.90;88.00;;;;;;5080950;28;20283;-42
2021/04/05 03:34:23;;;;;;;11.27;7.50;;;3.80;88.10;;;;;;5080797;28;20666;-41
2021/04/05 03:37:11;;;;;;;8.17;6.50;;;3.80;88.50;;;;;;5080662;28;20594;-42
2021/04/05 03:39:37;;;;;;;9.60;7.50;;;3.70;88.60;;;;;;5098245;28;20469;-42
2021/04/05 03:42:14;;;;;;;10.57;7.80;;;3.70;89.60;;;;;;5080373;28;20426;-43
2021/04/05 03:45:05;;;;;;;11.40;7.03;;;3.60;89.10;;;;;;5081092;28;20759;-41
2021/04/05 03:47:59;;;;;;;10.30;7.23;;;3.60;89.20;;;;;;5098333;28;20437;-42
2021/04/05 03:50:28;;;;;;;12.37;7.30;;;3.60;89.30;;;;;;5097774;28;20836;-42
2021/04/05 03:53:15;;;;;;;8.93;6.40;;;3.60;89.30;;;;;;5080316;28;20422;-40
2021/04/05 03:55:41;;;;;;;8.40;7.30;;;3.60;89.60;;;;;;5080384;28;20445;-40
2021/04/05 03:58:09;;;;;;;9.97;6.97;;;3.60;89.60;;;;;;5080164;28;20503;-39
2021/04/05 04:00:35;;;;;;;12.73;7.40;;;3.60;89.60;;;;;;5097952;28;20422;-42
2021/04/05 04:03:02;;;;;;;9.97;7.00;;;3.70;89.40;;;;;;5098387;28;20427;-42
2021/04/05 04:10:37;;;;;;;7.80;6.53;;;3.80;88.90;;;;;;5080868;28;20422;-41
2021/04/05 04:13:09;;;;;;;11.73;8.27;;;3.80;88.70;;;;;;5097569;28;20450;-43
2021/04/05 04:15:36;;;;;;;9.20;6.43;;;3.80;88.70;;;;;;5080380;28;20458;-41
2021/04/05 04:18:03;;;;;;;10.60;5.83;;;3.80;88.50;;;;;;5079954;28;20442;-42
2021/04/05 04:20:29;;;;;;;12.50;6.93;;;3.80;88.70;;;;;;5096981;28;20418;-40
2021/04/05 04:22:56;;;;;;;10.13;6.40;;;3.80;88.60;;;;;;5080269;28;20434;-41
2021/04/05 04:25:23;;;;;;;10.67;8.07;;;3.80;88.70;;;;;;5080446;28;20513;-42
2021/04/05 04:27:48;;;;;;;10.13;6.93;;;3.80;88.60;;;;;;5098316;28;20797;-43
2021/04/05 04:30:32;;;;;;;8.30;6.03;;;3.80;88.40;;;;;;5098044;28;20425;-42
2021/04/05 04:32:59;;;;;;;9.87;7.30;;;3.90;88.40;;;;;;5098087;28;20812;-40
2021/04/05 04:35:25;;;;;;;11.00;6.77;;;3.90;88.00;;;;;;5097811;28;20437;-43
2021/04/05 04:37:51;;;;;;;10.63;7.47;;;3.90;88.00;;;;;;5080762;28;20438;-43
2021/04/05 04:40:24;;;;;;;10.50;6.60;;;3.90;88.10;;;;;;5098270;28;20475;-43
2021/04/05 04:42:50;;;;;;;9.63;7.23;;;3.90;88.30;;;;;;5098094;28;20414;-43
2021/04/05 04:45:17;;;;;;;11.07;7.03;;;3.90;88.00;;;;;;5097137;28;20398;-43
2021/04/05 04:47:44;;;;;;;9.87;6.40;;;3.80;88.20;;;;;;5097955;28;20475;-40
2021/04/05 04:50:13;;;;;;;9.07;6.10;;;3.70;88.50;;;;;;5097409;28;20478;-41
2021/04/05 04:52:38;;;;;;;9.93;6.47;;;3.80;88.60;;;;;;5097627;28;20437;-41
2021/04/05 04:55:04;;;;;;;8.90;6.63;;;3.80;88.40;;;;;;5080002;28;20506;-39
2021/04/05 04:57:30;;;;;;;11.90;6.70;;;3.80;88.70;;;;;;5079411;28;20199;-39
2021/04/05 04:59:58;;;;;;;9.80;6.50;;;3.70;88.80;;;;;;5079616;28;20557;-41
2021/04/05 05:02:23;;;;;;;7.43;6.03;;;3.70;88.80;;;;;;5097720;28;20499;-41
2021/04/05 05:04:50;;;;;;;11.97;7.20;;;3.80;88.70;;;;;;5079280;28;20855;-40
2021/04/05 05:07:16;;;;;;;11.03;6.70;;;3.80;88.60;;;;;;5079530;28;20255;-41
2021/04/05 05:09:41;;;;;;;8.20;6.87;;;3.80;88.30;;;;;;5097412;28;20421;-38
2021/04/05 05:12:08;;;;;;;10.20;6.10;;;3.90;88.50;;;;;;5079803;28;20426;-41
2021/04/05 05:14:34;;;;;;;11.40;7.03;;;4.00;88.10;;;;;;5096853;28;20244;-42
2021/04/05 05:17:00;;;;;;;11.00;6.83;;;4.00;87.70;;;;;;5079607;28;20426;-40
2021/04/05 05:19:26;;;;;;;9.90;6.73;;;4.00;87.70;;;;;;5097136;28;20485;-41
2021/04/05 05:21:53;;;;;;;8.73;6.60;;;4.10;87.50;;;;;;5079691;28;20180;-39
2021/04/05 05:24:22;;;;;;;9.37;6.40;;;4.20;87.10;;;;;;5081395;28;20487;-40
2021/04/05 05:26:49;;;;;;;10.60;6.30;;;4.20;86.90;;;;;;5100607;28;20419;-41
2021/04/05 05:29:18;;;;;;;13.93;6.80;;;4.20;87.00;;;;;;5100518;28;20418;-40
2021/04/05 05:31:45;;;;;;;9.07;6.37;;;4.20;86.90;;;;;;5100626;28;20418;-41
2021/04/05 05:34:16;;;;;;;10.03;6.00;;;4.30;86.40;;;;;;5100588;28;20454;-41
2021/04/05 05:36:43;;;;;;;8.13;6.30;;;4.50;86.20;;;;;;5100527;28;20426;-41
2021/04/05 05:39:09;;;;;;;12.10;6.93;;;4.40;86.00;;;;;;5099987;28;20907;-41
2021/04/05 05:41:58;;;;;;;8.10;6.90;;;4.50;86.20;;;;;;5082432;28;20438;-42
2021/04/05 05:44:42;;;;;;;8.43;6.20;;;4.50;86.20;;;;;;5082801;28;20438;-42
2021/04/05 05:47:46;;;;;;;9.97;6.93;;;4.50;85.90;;;;;;5100108;28;20674;-39
2021/04/05 05:50:23;;;;;;;8.20;6.43;;;4.50;85.50;;;;;;5061641;28;20467;-40
2021/04/05 05:53:11;;;;;;;9.37;6.10;;;4.60;85.20;;;;;;5100730;28;20692;-42
2021/04/05 05:55:54;;;;;;;8.93;5.80;;;4.70;85.50;;;;;;5082890;28;20693;-44
2021/04/05 05:58:29;;;;;;;9.33;5.77;;;4.80;85.00;;;;;;5082624;28;20561;-42
2021/04/05 06:01:13;;;;;;;8.80;6.00;;;5.00;84.80;;;;;;5082954;28;20502;-39
2021/04/05 06:03:48;;;;;;;7.90;5.73;;;5.00;83.70;;;;;;5083435;28;20426;-40
2021/04/05 06:06:19;;;;;;;11.10;5.70;;;5.10;83.10;;;;;;5082837;28;20417;-38
2021/04/05 06:09:29;;;;;;;9.40;6.60;;;5.30;82.50;;;;;;5082824;28;20413;-40
2021/04/05 06:12:05;;;;;;;8.67;5.97;;;5.60;80.50;;;;;;5021577;28;20711;-40
2021/04/05 06:14:54;;;;;;;8.43;6.00;;;5.90;79.20;;;;;;5082466;28;20466;-40
2021/04/05 06:17:30;;;;;;;8.97;6.60;;;6.10;77.90;;;;;;5082647;28;20524;-41
2021/04/05 06:20:14;;;;;;;6.93;5.83;;;6.20;77.30;;;;;;5100268;28;20450;-42
2021/04/05 06:23:07;;;;;;;13.93;6.80;;;6.30;77.00;;;;;;5099707;28;20507;-38
2021/04/05 06:25:41;;;;;;;9.60;5.83;;;6.10;77.10;;;;;;5083210;28;20402;-40
2021/04/05 06:28:25;;;;;;;9.60;6.23;;;6.10;77.10;;;;;;5100083;28;20736;-41
2021/04/05 06:30:55;;;;;;;9.87;5.67;;;6.30;77.00;;;;;;5100135;28;20438;-39
2021/04/05 06:33:27;;;;;;;9.20;5.83;;;6.40;76.50;;;;;;5100119;28;20427;-42
2021/04/05 06:35:56;;;;;;;9.23;6.70;;;6.40;76.50;;;;;;5099751;28;20413;-40
2021/04/05 06:38:30;;;;;;;10.27;6.60;;;6.40;76.70;;;;;;5100300;28;20489;-40
2021/04/05 06:41:00;;;;;;;7.63;5.77;;;6.30;77.00;;;;;;5073143;28;20458;-41
2021/04/05 06:44:09;;;;;;;9.00;6.27;;;6.40;77.10;;;;;;5077849;28;20696;-41
2021/04/05 06:47:12;;;;;;;10.53;6.17;;;6.50;76.90;;;;;;5059465;28;20780;-42
2021/04/05 06:50:04;;;;;;;11.27;6.00;;;6.60;76.50;;;;;;5099901;28;20410;-42
2021/04/05 06:52:49;;;;;;;12.10;6.47;;;6.70;75.90;;;;;;5082461;28;20555;-41
2021/04/05 06:56:09;;;;;;;8.10;5.87;;;6.80;75.90;;;;;;5100940;28;20692;-42
2021/04/05 06:59:14;;;;;;;10.70;6.73;;;6.90;75.50;;;;;;4998021;28;20506;-39
2021/04/05 07:01:54;;;;;;;9.20;5.73;;;6.90;75.20;;;;;;5020564;28;20430;-43
2021/04/05 07:04:44;;;;;;;8.30;5.73;;;7.00;75.10;;;;;;5079188;28;20426;-41
2021/04/05 07:07:18;;;;;;;9.37;6.20;;;7.10;74.40;;;;;;5080567;28;20820;-42
2021/04/05 07:10:18;;;;;;;7.03;5.50;;;7.10;74.20;;;;;;5098667;28;20547;-43
2021/04/05 07:13:03;;;;;;;12.40;6.23;;;7.10;73.80;;;;;;5078983;28;20419;-43
2021/04/05 07:15:57;;;;;;;8.77;6.73;;;7.20;73.60;;;;;;5081789;28;20442;-42
2021/04/05 07:18:50;;;;;;;7.80;5.90;;;7.30;73.40;;;;;;5098493;28;20543;-40
2021/04/05 07:21:35;;;;;;;9.43;6.50;;;7.40;72.90;;;;;;5099720;28;20425;-42
2021/04/05 07:24:16;;;;;;;9.63;5.53;;;7.60;72.50;;;;;;5098035;28;20857;-40
2021/04/05 07:27:06;;;;;;;9.50;6.03;;;7.80;72.30;;;;;;5098412;28;20445;-42
2021/04/05 07:29:49;;;;;;;8.63;5.90;;;8.10;71.20;;;;;;5096909;28;20438;-40
2021/04/05 07:32:32;;;;;;;7.80;5.50;;;8.20;70.00;;;;;;5093998;28;20466;-42
2021/04/05 07:35:11;;;;;;;9.13;5.70;;;8.20;69.90;;;;;;5076675;28;20411;-42
2021/04/05 07:37:45;;;;;;;9.17;5.77;;;8.40;69.70;;;;;;5094870;28;20430;-41
2021/04/05 07:40:29;;;;;;;11.53;6.07;;;8.40;69.80;;;;;;5080481;28;20473;-41
2021/04/05 07:43:07;;;;;;;10.27;6.17;;;8.70;68.90;;;;;;5077445;28;20426;-43
2021/04/05 07:45:52;;;;;;;6.97;5.23;;;9.30;67.90;;;;;;5079280;28;20420;-41
2021/04/05 07:48:29;;;;;;;8.20;6.27;;;9.90;66.30;;;;;;5096319;28;20561;-42
2021/04/05 07:50:58;;;;;;;9.33;6.00;;;10.70;62.90;;;;;;5097163;28;20453;-39
2021/04/05 07:53:30;;;;;;;9.87;7.30;;;11.10;60.70;;;;;;5078643;28;20434;-41
2021/04/05 07:55:59;;;;;;;10.13;5.87;;;10.50;60.60;;;;;;5095632;28;20704;-43
2021/04/05 07:58:59;;;;;;;8.87;6.70;;;10.80;61.50;;;;;;5094724;28;20880;-40
2021/04/05 08:01:39;;;;;;;10.93;7.00;;;10.60;60.80;;;;;;5096715;28;20434;-42
2021/04/05 08:04:27;;;;;;;10.67;6.67;;;10.80;61.60;;;;;;5097066;28;20819;-43
2021/04/05 08:07:00;;;;;;;11.90;7.43;;;11.00;60.70;;;;;;5097563;28;20430;-41
2021/04/05 08:09:33;;;;;;;8.73;5.97;;;11.20;60.50;;;;;;5098188;28;20437;-43
2021/04/05 08:12:23;;;;;;;13.57;6.50;;;11.30;59.80;;;;;;5097648;28;20862;-40
2021/04/05 08:14:57;;;;;;;9.60;5.93;;;11.40;59.10;;;;;;5098649;28;20557;-40
2021/04/05 08:17:50;;;;;;;17.27;6.70;;;11.30;58.70;;;;;;5098347;28;20438;-42
2021/04/05 08:20:36;;;;;;;13.67;5.90;;;11.30;58.00;;;;;;5080297;28;20518;-40
2021/04/05 08:23:33;;;;;;;11.40;5.90;;;11.40;57.80;;;;;;5060097;28;20435;-41
2021/04/05 08:26:27;;;;;;;13.00;5.50;;;11.60;56.80;;;;;;5083566;28;20421;-41
2021/04/05 08:29:29;;;;;;;13.60;5.57;;;11.60;56.50;;;;;;5077595;28;20431;-41
2021/04/05 08:32:10;;;;;;;11.73;5.07;;;11.60;55.80;;;;;;5091083;28;20434;-40
2021/04/05 08:34:42;;;;;;;9.33;5.00;;;11.10;55.20;;;;;;5097721;28;20442;-41
2021/04/05 08:37:19;;;;;;;9.03;4.77;;;11.00;54.50;;;;;;5097895;28;20438;-42
2021/04/05 08:40:35;;;;;;;12.00;5.33;;;11.10;54.70;;;;;;5098461;28;20493;-45
2021/04/05 08:43:23;;;;;;;7.47;4.37;;;10.70;54.50;;;;;;5026715;28;20441;-45
2021/04/05 08:46:07;;;;;;;9.73;5.47;;;11.30;56.30;;;;;;5033152;28;20432;-46
2021/04/05 08:48:37;;;;;;;9.07;5.60;;;11.50;55.90;;;;;;5080531;28;20430;-45
2021/04/05 08:51:09;;;;;;;8.80;5.20;;;11.70;55.50;;;;;;5083578;28;20429;-45
2021/04/05 08:53:38;;;;;;;7.60;5.03;;;11.40;55.50;;;;;;5098963;28;20507;-45
2021/04/05 08:56:04;;;;;;;7.67;4.60;;;11.30;55.20;;;;;;5097692;28;20421;-45
2021/04/05 08:58:45;;;;;;;8.70;4.60;;;10.70;55.10;;;;;;5099986;28;20648;-45
2021/04/05 09:01:19;;;;;;;7.10;5.13;;;10.70;55.90;;;;;;5103429;28;20418;-45
2021/04/05 09:03:48;;;;;;;11.33;5.07;;;10.50;55.60;;;;;;5102558;28;20429;-45
2021/04/05 09:06:18;;;;;;;9.93;4.73;;;10.50;55.50;;;;;;5089006;28;20414;-43
2021/04/05 09:08:45;;;;;;;10.23;4.47;;;10.40;55.90;;;;;;5102749;28;20406;-45
2021/04/05 09:11:13;;;;;;;10.63;5.20;;;10.40;56.30;;;;;;5101802;28;20422;-45
2021/04/05 09:13:45;;;;;;;8.33;4.30;;;10.40;56.00;;;;;;5102640;28;20470;-45
2021/04/05 09:16:38;;;;;;;6.80;4.13;;;10.40;56.60;;;;;;5101705;28;20418;-45
2021/04/05 09:19:19;;;;;;;10.00;4.40;;;10.40;55.60;;;;;;5102362;28;20740;-44
2021/04/05 09:22:22;;;;;;;6.60;4.93;;;10.10;55.50;;;;;;5101261;28;20479;-45
2021/04/05 09:25:06;;;;;;;6.50;4.40;;;10.10;55.20;;;;;;5102097;28;20836;-45
2021/04/05 09:27:54;;;;;;;7.70;4.60;;;10.30;55.60;;;;;;5084356;28;20434;-42
2021/04/05 09:30:52;;;;;;;9.17;4.70;;;10.40;54.80;;;;;;5083296;28;20774;-42
2021/04/05 09:33:37;;;;;;;11.70;5.33;;;10.20;54.40;;;;;;5065034;28;20426;-40
2021/04/05 09:36:25;;;;;;;11.47;5.60;;;10.20;55.00;;;;;;5086551;28;20441;-41
2021/04/05 09:39:27;;;;;;;7.97;4.43;;;10.30;55.30;;;;;;5081858;28;20463;-41
2021/04/05 09:42:20;;;;;;;6.30;4.20;;;10.00;54.90;;;;;;5097445;28;20430;-42
2021/04/05 09:45:08;;;;;;;6.97;4.63;;;10.10;55.30;;;;;;5101087;28;20407;-40
2021/04/05 09:47:49;;;;;;;15.70;4.77;;;10.00;55.60;;;;;;5101208;28;20453;-42
2021/04/05 09:50:30;;;;;;;7.03;4.10;;;10.10;56.10;;;;;;5083921;28;20746;-42
2021/04/05 09:53:31;;;;;;;9.70;4.63;;;10.10;55.60;;;;;;5083493;28;20426;-41
2021/04/05 09:56:03;;;;;;;13.73;5.23;;;10.10;55.30;;;;;;5100621;28;20423;-41
2021/04/05 09:58:59;;;;;;;8.40;5.73;;;9.90;56.10;;;;;;5081694;28;20470;-41
2021/04/05 10:01:28;;;;;;;12.93;4.80;;;9.90;55.50;;;;;;5100114;28;20720;-41
2021/04/05 10:04:02;;;;;;;8.17;5.33;;;10.00;54.00;;;;;;5080601;28;20406;-42
2021/04/05 10:06:32;;;;;;;8.63;5.20;;;10.00;54.50;;;;;;5081555;28;20465;-40
2021/04/05 10:08:58;;;;;;;9.60;4.80;;;10.00;54.80;;;;;;5098010;28;20500;-42
2021/04/05 10:11:27;;;;;;;8.93;4.63;;;10.10;54.30;;;;;;5099490;28;20836;-41
2021/04/05 10:13:55;;;;;;;13.73;5.13;;;9.90;53.60;;;;;;5099560;28;20466;-39
2021/04/05 10:16:23;;;;;;;7.70;4.27;;;9.70;53.30;;;;;;5082449;28;20418;-39
2021/04/05 10:18:52;;;;;;;8.03;4.80;;;9.80;52.90;;;;;;5099426;28;20558;-42
2021/04/05 10:21:19;;;;;;;8.57;4.63;;;9.60;52.90;;;;;;5100022;28;20414;-39
2021/04/05 10:23:46;;;;;;;7.23;4.23;;;9.90;53.10;;;;;;5082622;28;20414;-42
2021/04/05 10:26:14;;;;;;;8.40;4.67;;;9.80;52.60;;;;;;5080887;28;20816;-41
2021/04/05 10:28:40;;;;;;;9.07;4.50;;;9.90;52.40;;;;;;5098965;28;20596;-43
2021/04/05 10:31:18;;;;;;;8.33;5.23;;;10.00;50.90;;;;;;5081955;28;20833;-42
2021/04/05 10:33:46;;;;;;;7.83;4.93;;;10.00;49.70;;;;;;5082055;28;20414;-41
2021/04/05 10:36:22;;;;;;;7.60;4.40;;;10.00;49.00;;;;;;5081591;28;20509;-41
2021/04/05 10:38:47;;;;;;;7.30;4.93;;;10.10;48.70;;;;;;5081060;28;20852;-41
2021/04/05 10:41:19;;;;;;;8.70;4.20;;;10.30;48.80;;;;;;5098838;28;20422;-41
2021/04/05 10:43:49;;;;;;;7.97;4.23;;;10.30;48.10;;;;;;5097907;28;20446;-41
2021/04/05 10:46:18;;;;;;;8.00;4.70;;;10.40;47.60;;;;;;5080936;28;20419;-40
2021/04/05 10:48:50;;;;;;;8.40;4.67;;;10.30;46.80;;;;;;5098983;28;20425;-41
2021/04/05 10:51:23;;;;;;;7.27;4.23;;;10.40;46.10;;;;;;5081887;28;20418;-41
2021/04/05 10:53:59;;;;;;;9.23;4.73;;;10.50;46.30;;;;;;5078772;28;20419;-42
2021/04/05 10:56:26;;;;;;;7.53;4.10;;;10.80;45.90;;;;;;5080720;28;20486;-41
2021/04/05 10:58:53;;;;;;;8.10;5.50;;;10.90;45.60;;;;;;5099575;28;20473;-40
2021/04/05 11:01:24;;;;;;;8.00;4.70;;;11.00;45.80;;;;;;5081563;28;20418;-42
2021/04/05 11:03:51;;;;;;;8.73;4.50;;;11.10;45.30;;;;;;5082562;28;20438;-42
2021/04/05 11:06:20;;;;;;;6.50;4.20;;;11.40;43.90;;;;;;5099260;28;20483;-41
2021/04/05 11:08:50;;;;;;;9.30;5.00;;;11.40;43.60;;;;;;5099728;28;20421;-41
2021/04/05 11:11:21;;;;;;;8.37;4.50;;;11.40;43.70;;;;;;5098844;28;20483;-42
2021/04/05 11:13:53;;;;;;;7.20;4.67;;;11.60;42.90;;;;;;5099235;28;20478;-43
2021/04/05 11:16:20;;;;;;;7.33;4.07;;;11.30;42.70;;;;;;5061103;28;20442;-43
2021/04/05 11:18:47;;;;;;;7.60;4.10;;;11.40;43.10;;;;;;5060893;28;20498;-41
2021/04/05 11:21:16;;;;;;;8.10;4.00;;;11.80;43.00;;;;;;5049534;28;20548;-41
2021/04/05 11:23:42;;;;;;;8.10;4.40;;;11.90;43.30;;;;;;5062581;28;20415;-43
2021/04/05 11:26:09;;;;;;;6.40;4.30;;;12.00;43.70;;;;;;5080457;28;20418;-42
2021/04/05 11:28:38;;;;;;;8.00;5.17;;;11.70;43.60;;;;;;5096960;28;20716;-41
2021/04/05 11:31:07;;;;;;;6.73;5.20;;;11.60;43.90;;;;;;5096403;28;20480;-41
2021/04/05 11:33:42;;;;;;;6.90;4.90;;;11.40;43.70;;;;;;5096482;28;20475;-41
2021/04/05 11:36:08;;;;;;;6.40;5.13;;;11.40;44.50;;;;;;5080319;28;20771;-42
2021/04/05 11:38:44;;;;;;;12.53;5.97;;;11.50;44.30;;;;;;5080847;28;20458;-40
2021/04/05 11:41:12;;;;;;;8.30;4.97;;;11.40;44.30;;;;;;5079791;28;20414;-42
2021/04/05 11:43:41;;;;;;;10.70;5.87;;;11.60;44.20;;;;;;5064467;28;20423;-41
2021/04/05 11:46:12;;;;;;;8.27;5.30;;;11.90;44.20;;;;;;5064700;28;20472;-42
2021/04/05 11:48:38;;;;;;;11.07;5.47;;;12.10;44.00;;;;;;5080011;28;20418;-42
2021/04/05 11:51:05;;;;;;;9.10;5.90;;;12.20;43.80;;;;;;5079242;28;20426;-41
2021/04/05 11:53:51;;;;;;;11.07;6.10;;;12.10;43.90;;;;;;5097536;28;20505;-42
2021/04/05 11:56:23;;;;;;;14.20;5.87;;;12.20;44.10;;;;;;5097085;28;20483;-40
2021/04/05 11:59:01;;;;;;;9.80;5.87;;;12.00;44.40;;;;;;5097413;28;20544;-42
2021/04/05 12:01:44;;;;;;;13.97;6.23;;;12.00;44.60;;;;;;5097884;28;20499;-41
2021/04/05 12:04:29;;;;;;;11.97;6.20;;;11.90;45.00;;;;;;5079665;28;20414;-40
2021/04/05 12:06:59;;;;;;;12.00;6.20;;;12.00;45.30;;;;;;5097636;28;20449;-42
2021/04/05 12:09:33;;;;;;;9.10;5.60;;;11.80;45.50;;;;;;5079046;28;20414;-41
2021/04/05 12:12:04;;;;;;;11.63;7.20;;;11.70;46.20;;;;;;5079954;28;20437;-39
2021/04/05 12:14:31;;;;;;;18.40;8.00;;;11.90;46.20;;;;;;5097619;28;20553;-42
2021/04/05 12:16:58;;;;;;;14.50;8.00;;;12.10;45.90;;;;;;5098062;28;20448;-40
2021/04/05 12:19:38;;;;;;;13.50;7.93;;;11.90;46.00;;;;;;5079915;28;20508;-42
2021/04/05 12:22:05;;;;;;;11.30;7.53;;;11.50;46.30;;;;;;5097246;28;20450;-43
2021/04/05 12:24:34;;;;;;;13.13;8.43;;;11.60;47.10;;;;;;5079225;28;20462;-40
2021/04/05 12:27:19;;;;;;;12.93;8.33;;;11.40;47.50;;;;;;5080109;28;20851;-41
2021/04/05 12:29:45;;;;;;;12.50;8.80;;;11.20;48.20;;;;;;5079964;28;20832;-41
2021/04/05 12:32:17;;;;;;;12.43;8.30;;;11.10;48.70;;;;;;5097305;28;20453;-41
2021/04/05 12:34:45;;;;;;;14.43;8.47;;;11.00;48.70;;;;;;5078758;28;20445;-42
2021/04/05 12:37:18;;;;;;;12.90;9.17;;;11.00;49.20;;;;;;5097626;28;20434;-42
2021/04/05 12:39:51;;;;;;;18.93;9.27;;;10.80;49.20;;;;;;5079352;28;20458;-41
2021/04/05 12:42:18;;;;;;;13.23;9.37;;;10.70;49.40;;;;;;5097804;28;20474;-40
2021/04/05 12:44:45;;;;;;;16.60;9.63;;;10.50;49.80;;;;;;5080567;28;20491;-42
2021/04/05 12:47:12;;;;;;;16.10;10.23;;;10.50;50.40;;;;;;5097372;28;20809;-42
2021/04/05 12:49:43;;;;;;;14.00;9.40;;;10.40;50.70;;;;;;5098037;28;20403;-40
2021/04/05 12:52:15;;;;;;;12.30;9.53;;;10.30;51.50;;;;;;5097994;28;20449;-41
2021/04/05 12:54:47;;;;;;;15.97;9.57;;;10.30;52.00;;;;;;5067329;28;20529;-41
2021/04/05 12:57:13;;;;;;;16.37;10.67;;;10.30;52.10;;;;;;5074504;28;20690;-41
2021/04/05 12:59:40;;;;;;;20.77;11.57;;;10.20;53.10;;;;;;5097050;28;20462;-41
2021/04/05 13:02:16;;;;;;;17.40;11.13;;;10.30;54.30;;;;;;5096936;28;20430;-41
2021/04/05 13:05:00;;;;;;;16.60;10.70;;;10.30;54.90;;;;;;5079782;28;20429;-42
2021/04/05 13:07:31;;;;;;;18.43;10.50;;;10.00;54.90;;;;;;5095294;28;20430;-42
2021/04/05 13:09:59;;;;;;;16.00;12.07;;;9.90;56.10;;;;;;5079878;28;20859;-40
2021/04/05 13:12:40;;;;;;;16.70;11.23;;;9.80;56.70;;;;;;5080003;28;20442;-42
2021/04/05 13:15:28;;;;;;;18.53;11.00;;;9.70;57.80;;;;;;5097917;28;20470;-42
2021/04/05 13:17:55;;;;;;;17.00;11.27;;;9.70;58.10;;;;;;5097173;28;20445;-42
2021/04/05 13:20:27;;;;;;;20.20;11.70;;;9.60;58.70;;;;;;5097238;28;20497;-41
2021/04/05 13:23:05;;;;;;;22.70;13.47;;;9.60;59.40;;;;;;5078660;28;20870;-41
2021/04/05 13:25:33;;;;;;;15.57;11.40;;;9.50;59.00;;;;;;5078886;28;20433;-38
2021/04/05 13:28:00;;;;;;;15.33;11.67;;;9.50;59.50;;;;;;5097027;28;20434;-41